createdAt,value
2022-12-31T00:01:27.814Z,8.00
2022-12-31T00:11:32.850Z,7.96
2022-12-31T00:21:36.316Z,8.11
2022-12-31T00:31:40.929Z,8.07
2022-12-31T00:41:44.838Z,7.99
2022-12-31T00:51:49.373Z,8.03
2022-12-31T01:01:52.681Z,7.98
2022-12-31T01:11:57.302Z,7.89
2022-12-31T01:22:00.383Z,7.94
2022-12-31T01:32:05.327Z,7.95
2022-12-31T01:42:11.573Z,7.94
2022-12-31T01:52:19.563Z,7.94
2022-12-31T02:02:22.830Z,7.99
2022-12-31T02:12:27.412Z,7.93
2022-12-31T02:22:44.238Z,7.92
2022-12-31T02:33:02.635Z,8.02
2022-12-31T02:43:06.138Z,7.94
2022-12-31T02:53:21.659Z,7.87
2022-12-31T03:03:25.321Z,8.01
2022-12-31T03:13:29.769Z,7.64
2022-12-31T03:23:35.424Z,7.89
2022-12-31T03:33:41.212Z,7.96
2022-12-31T03:43:44.297Z,7.86
2022-12-31T03:53:48.763Z,7.98
2022-12-31T04:03:51.823Z,7.90
2022-12-31T04:13:56.257Z,7.83
2022-12-31T04:23:59.393Z,7.91
2022-12-31T04:34:03.920Z,7.83
2022-12-31T04:44:07.002Z,7.84
2022-12-31T04:54:11.496Z,7.88
2022-12-31T05:04:14.601Z,7.87
2022-12-31T05:14:19.275Z,7.82
2022-12-31T05:24:22.361Z,7.75
2022-12-31T05:34:26.907Z,7.82
2022-12-31T05:44:30.018Z,7.88
2022-12-31T05:54:34.765Z,7.86
2022-12-31T06:04:37.877Z,7.97
2022-12-31T06:14:45.534Z,7.80
2022-12-31T06:24:49.078Z,7.90
2022-12-31T06:34:53.470Z,7.89
2022-12-31T06:44:56.719Z,7.95
2022-12-31T06:55:01.979Z,7.91
2022-12-31T07:05:20.534Z,7.92
2022-12-31T07:15:38.148Z,7.90
2022-12-31T07:25:42.618Z,8.00
2022-12-31T07:35:53.824Z,8.00
2022-12-31T07:46:03.813Z,7.78
2022-12-31T07:56:10.156Z,8.18
2022-12-31T08:06:18.479Z,8.25
2022-12-31T08:16:23.663Z,8.37
2022-12-31T08:26:34.356Z,8.59
2022-12-31T08:36:45.623Z,8.51
2022-12-31T08:46:54.145Z,8.59
2022-12-31T08:57:06.667Z,8.69
2022-12-31T09:07:12.024Z,8.87
2022-12-31T09:17:33.495Z,8.94
2022-12-31T09:27:41.358Z,9.06
2022-12-31T09:37:48.313Z,9.23
2022-12-31T09:48:16.721Z,9.24
2022-12-31T09:58:31.580Z,9.01
2022-12-31T10:08:51.098Z,9.33
2022-12-31T10:19:15.404Z,9.33
2022-12-31T10:29:26.073Z,9.28
2022-12-31T10:39:45.249Z,9.57
2022-12-31T10:50:21.208Z,9.38
2022-12-31T11:00:28.704Z,9.67
2022-12-31T11:11:03.290Z,9.87
2022-12-31T11:21:28.565Z,9.81
2022-12-31T11:31:47.645Z,9.27
2022-12-31T11:41:54.886Z,10.12
2022-12-31T11:52:39.933Z,10.10
2022-12-31T12:02:47.240Z,10.50
2022-12-31T12:12:50.358Z,10.51
2022-12-31T12:22:57.607Z,10.69
2022-12-31T12:33:02.043Z,10.34
2022-12-31T12:43:06.936Z,10.72
2022-12-31T12:53:21.426Z,11.00
2022-12-31T13:04:23.820Z,11.01
2022-12-31T13:14:18.909Z,11.17
2022-12-31T13:24:41.498Z,11.31
2022-12-31T13:34:47.349Z,11.32
2022-12-31T13:44:54.935Z,11.24
2022-12-31T13:55:03.211Z,11.35
2022-12-31T14:05:15.557Z,11.18
2022-12-31T14:15:24.061Z,11.20
2022-12-31T14:25:31.971Z,11.20
2022-12-31T14:35:44.292Z,10.89
2022-12-31T14:45:57.253Z,10.76
2022-12-31T14:56:02.049Z,11.16
2022-12-31T15:06:31.198Z,10.82
2022-12-31T15:16:43.253Z,10.66
2022-12-31T15:26:51.715Z,10.73
2022-12-31T15:36:57.193Z,10.51
2022-12-31T15:47:09.787Z,10.53
2022-12-31T15:57:16.288Z,10.61
2022-12-31T16:07:20.956Z,10.36
2022-12-31T16:17:28.938Z,10.34
2022-12-31T16:27:36.027Z,10.19
2022-12-31T16:37:40.299Z,9.94
2022-12-31T16:47:44.912Z,9.71
2022-12-31T16:57:53.944Z,9.50
2022-12-31T17:07:58.484Z,9.30
2022-12-31T17:18:03.661Z,9.10
2022-12-31T17:28:18.504Z,8.93
2022-12-31T17:38:39.301Z,8.83
2022-12-31T17:48:45.070Z,8.70
2022-12-31T17:58:50.084Z,8.82
2022-12-31T18:08:54.591Z,8.68
2022-12-31T18:18:59.185Z,8.69
2022-12-31T18:29:13.498Z,8.58
2022-12-31T18:39:16.593Z,8.54
2022-12-31T18:49:21.133Z,8.54
2022-12-31T18:59:24.168Z,8.65
2022-12-31T19:09:45.147Z,8.85
2022-12-31T19:19:49.701Z,9.00
2022-12-31T19:29:54.176Z,8.89
2022-12-31T19:39:57.333Z,8.79
2022-12-31T19:50:02.268Z,8.64
2022-12-31T20:00:06.488Z,8.39
2022-12-31T20:10:11.892Z,8.16
2022-12-31T20:20:14.960Z,7.78
2022-12-31T20:30:20.905Z,7.72
2022-12-31T20:40:24.050Z,7.52
2022-12-31T20:50:28.515Z,7.52
2022-12-31T21:00:31.710Z,7.43
2022-12-31T21:10:36.206Z,7.42
2022-12-31T21:20:39.266Z,7.68
2022-12-31T21:30:44.421Z,7.96
2022-12-31T21:40:47.728Z,7.88
2022-12-31T21:50:53.879Z,7.88
2022-12-31T22:01:15.034Z,7.73
2022-12-31T22:11:22.043Z,7.49
2022-12-31T22:21:26.596Z,7.42
2022-12-31T22:31:31.534Z,7.14
2022-12-31T22:41:35.149Z,6.96
2022-12-31T22:51:57.578Z,6.92
2022-12-31T23:02:02.837Z,6.73
2022-12-31T23:12:08.524Z,6.56
2022-12-31T23:22:28.842Z,6.44
2022-12-31T23:32:33.399Z,6.33
2022-12-31T23:42:36.625Z,6.08
2022-12-31T23:52:44.201Z,6.20
